Time;durP1;ratioP1;P1;durP2;ratioP2;P2;SDS_P1;SDS_P2;PMS_P1;PMS_P2;Temp;Humidity;BMP_temperature;BMP_pressure;BME280_temperature;BME280_humidity;BME280_pressure;Samples;Min_cycle;Max_cycle;Signal;HPM_P1;HPM_P2
2023/07/09 00:01:42;;;;;;;5.90;5.50;;;;;;;22.72;61.48;101051.13;4975741;28;20564;-85
2023/07/09 00:04:09;;;;;;;5.77;5.27;;;;;;;22.70;62.43;101045.03;4974595;28;20651;-85
2023/07/09 00:06:37;;;;;;;6.20;5.80;;;;;;;22.63;62.81;101029.53;4975568;28;20210;-86
2023/07/09 00:09:04;;;;;;;5.47;5.17;;;;;;;22.62;62.95;101028.66;4975511;28;20238;-84
2023/07/09 00:11:30;;;;;;;5.80;5.30;;;;;;;22.56;63.48;101007.75;4975148;28;20219;-83
2023/07/09 00:13:58;;;;;;;6.40;5.90;;;;;;;22.53;63.83;101000.78;4974898;28;20235;-86
2023/07/09 00:16:30;;;;;;;5.90;5.37;;;;;;;22.47;64.25;100974.56;4975433;28;20641;-86
2023/07/09 00:18:57;;;;;;;6.23;5.63;;;;;;;22.40;63.73;100982.06;4974908;28;20555;-86
2023/07/09 00:21:23;;;;;;;6.20;5.60;;;;;;;22.34;63.39;100994.88;4975612;28;20236;-84
2023/07/09 00:23:49;;;;;;;7.10;6.03;;;;;;;22.29;63.46;101003.13;4975926;28;20216;-84
2023/07/09 00:26:20;;;;;;;7.07;5.37;;;;;;;22.26;64.10;101005.09;4974817;28;20356;-81
2023/07/09 00:28:49;;;;;;;5.90;5.40;;;;;;;22.23;64.22;100994.63;4966758;28;20673;-85
2023/07/09 00:31:17;;;;;;;5.77;5.37;;;;;;;22.23;63.27;101015.91;4975603;28;20243;-86
2023/07/09 00:33:47;;;;;;;6.27;5.67;;;;;;;22.18;63.06;101032.97;4974060;28;20215;-85
2023/07/09 00:36:16;;;;;;;10.03;5.70;;;;;;;22.16;63.33;101034.00;4976442;28;20235;-83
2023/07/09 00:38:47;;;;;;;5.87;5.47;;;;;;;22.15;63.37;101027.81;4978800;28;20248;-84
2023/07/09 00:41:18;;;;;;;6.20;5.60;;;;;;;22.11;63.49;101025.44;4979063;28;20208;-84
2023/07/09 00:43:46;;;;;;;6.10;5.57;;;;;;;22.05;63.86;101021.34;4978580;28;20305;-84
2023/07/09 00:46:32;;;;;;;7.87;6.80;;;;;;;22.00;64.09;101010.97;4978714;28;20232;-85
2023/07/09 00:49:04;;;;;;;5.73;5.33;;;;;;;21.95;64.60;100989.09;4976811;28;20246;-85
2023/07/09 00:51:32;;;;;;;6.20;5.73;;;;;;;21.87;65.32;100967.44;4978690;28;20307;-83
2023/07/09 00:54:08;;;;;;;7.30;5.40;;;;;;;21.79;65.89;100962.56;4970561;28;20236;-86
2023/07/09 00:56:40;;;;;;;6.20;5.60;;;;;;;21.71;65.78;100945.34;4978493;28;20236;-83
2023/07/09 00:59:11;;;;;;;5.53;5.13;;;;;;;21.66;66.23;100934.97;4970910;28;20224;-84
2023/07/09 01:01:40;;;;;;;5.97;5.57;;;;;;;21.55;66.57;100921.47;4985586;28;20214;-84
2023/07/09 01:04:09;;;;;;;5.60;5.10;;;;;;;21.53;66.89;100915.38;4957927;28;20205;-85
2023/07/09 01:06:42;;;;;;;5.67;5.27;;;;;;;21.47;67.21;100895.31;4975875;28;20208;-86
2023/07/09 01:09:08;;;;;;;5.30;4.90;;;;;;;21.44;67.31;100889.34;4978311;28;20236;-85
2023/07/09 01:11:37;;;;;;;7.27;5.37;;;;;;;21.40;66.80;100905.41;4978773;28;20275;-84
2023/07/09 01:14:07;;;;;;;5.50;5.00;;;;;;;21.37;66.53;100907.41;4978013;28;20196;-84
2023/07/09 01:16:42;;;;;;;5.77;5.37;;;;;;;21.33;66.59;100911.16;4978858;28;20216;-84
2023/07/09 01:19:23;;;;;;;6.03;5.40;;;;;;;21.30;66.20;100928.09;4977408;28;20250;-84
2023/07/09 01:21:52;;;;;;;5.33;5.00;;;;;;;21.25;66.59;100924.88;4978285;28;20238;-84
2023/07/09 01:24:51;;;;;;;5.60;5.30;;;;;;;20.83;66.30;100939.53;4977947;28;20262;-86
2023/07/09 01:27:20;;;;;;;6.20;5.57;;;;;;;20.58;67.51;100909.00;4977871;28;20212;-86
2023/07/09 01:29:52;;;;;;;6.60;5.53;;;;;;;20.72;67.36;100896.81;4977752;28;20247;-86
2023/07/09 01:32:23;;;;;;;5.03;4.73;;;;;;;20.80;68.44;100881.34;4977592;28;20244;-82
2023/07/09 01:34:52;;;;;;;4.83;4.53;;;;;;;20.87;68.79;100872.13;4978025;28;20227;-86
2023/07/09 01:37:23;;;;;;;5.80;5.30;;;;;;;20.90;68.02;100881.69;4977869;28;20218;-85
2023/07/09 01:39:52;;;;;;;5.77;4.90;;;;;;;20.86;67.25;100899.56;4977542;28;20228;-86
2023/07/09 01:42:23;;;;;;;5.67;5.17;;;;;;;20.86;67.26;100902.22;4977616;28;20256;-83
2023/07/09 01:44:51;;;;;;;5.73;5.33;;;;;;;20.90;66.14;100929.47;4977195;28;20208;-84
2023/07/09 01:47:17;;;;;;;5.73;5.33;;;;;;;20.93;64.69;100975.28;4977157;28;20208;-83
2023/07/09 01:49:46;;;;;;;5.23;4.73;;;;;;;20.97;64.53;100995.41;4977821;28;20232;-86
2023/07/09 01:52:13;;;;;;;5.80;5.30;;;;;;;21.00;64.35;101016.47;4980804;28;20239;-86
2023/07/09 01:54:40;;;;;;;5.50;5.10;;;;;;;21.03;64.63;101021.63;4980172;28;20639;-85
2023/07/09 01:57:16;;;;;;;5.23;4.83;;;;;;;21.03;64.55;101026.06;4981666;28;20259;-85
2023/07/09 01:59:44;;;;;;;5.33;4.83;;;;;;;20.96;64.94;101014.91;4980836;28;21013;-86
2023/07/09 02:02:18;;;;;;;5.80;5.00;;;;;;;20.83;64.23;101025.31;4980261;28;20204;-85
2023/07/09 02:04:46;;;;;;;5.60;5.10;;;;;;;20.80;65.51;101001.59;4971789;28;20742;-86
2023/07/09 02:07:12;;;;;;;5.30;4.90;;;;;;;20.84;64.50;101010.25;4962035;28;20267;-85
2023/07/09 02:09:39;;;;;;;6.53;5.23;;;;;;;20.83;65.31;101006.75;4961164;28;20268;-85
2023/07/09 02:12:07;;;;;;;6.10;5.60;;;;;;;20.85;66.00;100996.03;4962258;28;20208;-86
2023/07/09 02:14:34;;;;;;;5.73;5.23;;;;;;;20.79;66.14;100969.81;4977308;28;20205;-86
2023/07/09 02:17:00;;;;;;;6.07;5.57;;;;;;;20.69;66.33;100960.66;4985307;28;20188;-86
2023/07/09 02:19:26;;;;;;;5.97;5.47;;;;;;;20.67;66.51;100958.06;4987266;28;20228;-85
2023/07/09 02:21:52;;;;;;;6.70;4.93;;;;;;;20.64;66.85;100955.59;4986282;28;20205;-84
2023/07/09 02:24:19;;;;;;;5.93;5.47;;;;;;;20.59;67.58;100926.66;4976593;28;20212;-82
2023/07/09 02:26:49;;;;;;;5.43;5.03;;;;;;;20.55;68.21;100903.84;4976841;28;20236;-85
2023/07/09 02:29:17;;;;;;;7.17;4.93;;;;;;;20.58;68.06;100905.50;4976045;28;20235;-84
2023/07/09 02:31:44;;;;;;;5.70;5.30;;;;;;;20.52;68.08;100903.16;4977327;28;20216;-84
2023/07/09 02:34:10;;;;;;;5.90;5.40;;;;;;;20.48;68.12;100904.28;4976378;28;20204;-84
2023/07/09 02:36:37;;;;;;;6.43;5.73;;;;;;;20.38;68.38;100917.16;4977084;28;20208;-85
2023/07/09 02:39:03;;;;;;;6.10;5.60;;;;;;;20.34;68.27;100910.31;4977080;28;20308;-84
2023/07/09 02:41:29;;;;;;;6.07;5.57;;;;;;;20.32;68.55;100905.06;4976334;28;20236;-85
2023/07/09 02:43:57;;;;;;;7.10;5.10;;;;;;;20.32;68.98;100896.25;4976731;28;20726;-86
2023/07/09 02:46:30;;;;;;;6.60;6.10;;;;;;;20.34;68.91;100883.78;4976796;28;20294;-85
2023/07/09 02:48:57;;;;;;;5.53;5.03;;;;;;;20.32;69.09;100878.56;4975280;28;20272;-85
2023/07/09 02:51:24;;;;;;;5.63;5.23;;;;;;;20.28;69.32;100874.34;4976392;28;20215;-84
2023/07/09 02:53:50;;;;;;;5.70;5.20;;;;;;;20.20;69.55;100877.41;4976167;28;20271;-85
2023/07/09 02:56:19;;;;;;;6.40;5.80;;;;;;;20.11;69.90;100863.78;4976500;28;20232;-86
2023/07/09 02:58:50;;;;;;;5.83;5.33;;;;;;;20.12;69.89;100865.47;4976222;28;20279;-85
2023/07/09 03:01:21;;;;;;;5.70;5.33;;;;;;;20.13;69.70;100876.00;4976337;28;20249;-84
2023/07/09 03:03:50;;;;;;;6.40;6.00;;;;;;;20.14;69.87;100868.94;4982495;28;20242;-86
2023/07/09 03:06:17;;;;;;;6.60;5.40;;;;;;;20.12;70.25;100853.09;4956815;28;20208;-84
2023/07/09 03:08:43;;;;;;;6.33;5.93;;;;;;;20.06;70.74;100852.53;4956933;28;20244;-83
2023/07/09 03:11:11;;;;;;;7.20;5.50;;;;;;;20.09;70.70;100839.13;4957122;28;20236;-85
2023/07/09 03:13:38;;;;;;;5.90;5.50;;;;;;;19.98;70.76;100851.16;4956211;28;20300;-85
2023/07/09 03:16:06;;;;;;;6.30;5.70;;;;;;;19.98;71.06;100845.84;4975678;28;20686;-83
2023/07/09 03:18:32;;;;;;;5.93;5.53;;;;;;;19.97;71.34;100830.88;4976008;28;20348;-83
2023/07/09 03:21:00;;;;;;;5.97;5.47;;;;;;;19.96;71.16;100850.38;4975977;28;20232;-86
2023/07/09 03:23:27;;;;;;;6.17;5.67;;;;;;;19.96;71.04;100846.84;4975415;28;20699;-84
2023/07/09 03:25:54;;;;;;;5.30;5.00;;;;;;;19.92;71.58;100840.00;4975904;28;20241;-84
2023/07/09 03:28:20;;;;;;;5.50;5.10;;;;;;;19.94;71.37;100830.19;4975722;28;20278;-85
2023/07/09 03:30:48;;;;;;;5.67;5.27;;;;;;;19.91;71.43;100838.31;4976413;28;20212;-85
2023/07/09 03:33:17;;;;;;;6.60;6.00;;;;;;;19.89;71.52;100837.53;4975105;28;20219;-83
2023/07/09 03:35:44;;;;;;;6.20;5.77;;;;;;;19.82;71.88;100829.91;4975278;28;20266;-85
2023/07/09 03:38:12;;;;;;;6.07;5.57;;;;;;;19.81;71.39;100843.22;4975852;28;20252;-86
2023/07/09 03:40:40;;;;;;;5.67;5.27;;;;;;;19.72;71.57;100849.84;4975665;28;20209;-85
2023/07/09 03:43:09;;;;;;;5.63;5.30;;;;;;;19.74;71.57;100845.31;4975366;28;20758;-84
2023/07/09 03:45:36;;;;;;;5.90;5.30;;;;;;;19.76;72.11;100851.41;4975201;28;20675;-84
2023/07/09 03:48:03;;;;;;;6.17;5.67;;;;;;;19.76;72.19;100839.94;4967938;28;20236;-84
2023/07/09 03:50:29;;;;;;;5.13;4.70;;;;;;;19.77;72.36;100837.22;4975087;28;20208;-86
2023/07/09 03:52:55;;;;;;;5.37;4.97;;;;;;;19.69;73.11;100818.16;4975544;28;20208;-84
2023/07/09 03:55:26;;;;;;;5.00;4.70;;;;;;;19.69;72.32;100831.41;4976109;28;20734;-86
2023/07/09 03:57:52;;;;;;;5.00;4.60;;;;;;;19.64;73.16;100826.38;4975696;28;20291;-84
2023/07/09 04:00:19;;;;;;;5.00;4.70;;;;;;;19.37;72.84;100835.69;4975919;28;20208;-86
2023/07/09 04:02:45;;;;;;;5.53;5.13;;;;;;;19.45;74.48;100812.34;4974644;28;20562;-80
2023/07/09 04:05:12;;;;;;;4.70;4.40;;;;;;;19.46;74.36;100790.19;4979618;28;20239;-84
2023/07/09 04:07:38;;;;;;;5.13;4.73;;;;;;;19.58;74.33;100792.25;4971728;28;20201;-85
2023/07/09 04:10:06;;;;;;;6.13;5.73;;;;;;;19.65;74.44;100788.34;4980452;28;20275;-86
2023/07/09 04:12:34;;;;;;;5.40;5.00;;;;;;;19.73;74.48;100785.31;4958853;28;20228;-84
2023/07/09 04:15:00;;;;;;;5.60;5.20;;;;;;;19.76;74.28;100786.94;4971203;28;20255;-85
2023/07/09 04:17:29;;;;;;;5.30;4.80;;;;;;;19.83;73.65;100797.16;4979153;28;20235;-85
2023/07/09 04:19:56;;;;;;;8.40;5.10;;;;;;;19.88;72.94;100814.59;4979095;28;20227;-84
2023/07/09 04:22:22;;;;;;;5.20;4.80;;;;;;;19.83;72.79;100830.75;4979651;28;20259;-84
2023/07/09 04:24:49;;;;;;;5.50;5.10;;;;;;;19.86;73.51;100837.66;4979221;28;20236;-85
2023/07/09 04:27:20;;;;;;;6.07;5.67;;;;;;;19.81;74.64;100814.06;4979777;28;20211;-85
2023/07/09 04:29:48;;;;;;;5.03;4.67;;;;;;;19.87;74.30;100807.59;4978585;28;20627;-85
2023/07/09 04:32:15;;;;;;;5.37;4.93;;;;;;;19.89;74.44;100800.44;4979323;28;20239;-84
2023/07/09 04:34:42;;;;;;;5.83;5.43;;;;;;;19.93;74.75;100800.19;4978410;28;20207;-84
2023/07/09 04:37:12;;;;;;;5.30;5.00;;;;;;;19.98;74.62;100794.63;4979217;28;20434;-85
2023/07/09 04:39:40;;;;;;;5.40;4.90;;;;;;;20.01;74.97;100803.28;4978858;28;20224;-86
2023/07/09 04:42:10;;;;;;;5.27;4.97;;;;;;;20.09;75.07;100796.72;4979125;28;20299;-84
2023/07/09 04:44:36;;;;;;;5.60;5.20;;;;;;;20.15;74.73;100807.84;4977748;28;20207;-83
2023/07/09 04:47:05;;;;;;;9.30;5.23;;;;;;;20.19;75.42;100793.50;4979136;28;20249;-84
2023/07/09 04:49:32;;;;;;;5.00;4.67;;;;;;;20.23;74.89;100800.34;4977756;28;20263;-85
2023/07/09 04:52:00;;;;;;;5.47;5.17;;;;;;;20.27;74.49;100827.56;4977738;28;20209;-85
2023/07/09 04:54:27;;;;;;;5.37;5.07;;;;;;;20.32;75.46;100811.41;4958891;28;20668;-84
2023/07/09 04:56:53;;;;;;;5.63;5.20;;;;;;;20.35;75.59;100801.47;4959334;28;20809;-84
2023/07/09 04:59:21;;;;;;;5.73;5.37;;;;;;;20.40;75.48;100804.75;4975218;28;20274;-86
2023/07/09 05:01:48;;;;;;;5.70;5.30;;;;;;;20.43;75.47;100811.69;4966300;28;20219;-84
2023/07/09 05:04:15;;;;;;;8.27;5.00;;;;;;;20.48;75.16;100819.41;4977277;28;20739;-83
2023/07/09 05:06:42;;;;;;;5.90;5.50;;;;;;;20.51;74.80;100827.19;4978507;28;20255;-85
2023/07/09 05:09:09;;;;;;;6.90;5.97;;;;;;;20.54;75.07;100837.63;4978216;28;20227;-85
2023/07/09 05:11:36;;;;;;;6.00;5.60;;;;;;;20.59;74.64;100839.13;4977855;28;20223;-84
2023/07/09 05:14:03;;;;;;;6.20;5.70;;;;;;;20.63;75.01;100845.09;4978527;28;20216;-84
2023/07/09 05:16:30;;;;;;;4.83;4.53;;;;;;;20.65;75.07;100847.69;4978177;28;20729;-85
2023/07/09 05:19:00;;;;;;;6.63;5.40;;;;;;;20.68;75.28;100836.91;4977111;28;20256;-86
2023/07/09 05:21:28;;;;;;;6.37;5.90;;;;;;;20.72;74.91;100843.75;4978622;28;20214;-84
2023/07/09 05:23:54;;;;;;;9.17;6.67;;;;;;;20.76;74.88;100848.81;4976455;28;20588;-83
2023/07/09 05:26:20;;;;;;;6.00;5.43;;;;;;;20.80;75.67;100836.22;4979543;28;20205;-86
2023/07/09 05:28:53;;;;;;;6.23;5.83;;;;;;;20.82;76.79;100807.81;4994211;23;20260;-84
2023/07/09 05:31:25;;;;;;;6.97;6.40;;;;;;;20.89;76.43;100819.81;4945236;29;20260;-84
2023/07/09 05:33:53;;;;;;;6.20;5.63;;;;;;;20.94;76.17;100814.22;4957367;29;20213;-84
2023/07/09 05:36:29;;;;;;;10.07;6.67;;;;;;;20.99;76.81;100820.13;4950510;29;20232;-82
2023/07/09 05:38:58;;;;;;;5.90;5.43;;;;;;;20.98;79.07;100762.69;4957773;28;20223;-84
2023/07/09 05:41:27;;;;;;;5.70;5.30;;;;;;;20.89;78.21;100776.47;4949244;28;20205;-84
2023/07/09 05:43:59;;;;;;;5.80;5.40;;;;;;;20.88;78.36;100775.63;4956752;28;20209;-83
2023/07/09 05:46:36;;;;;;;8.27;7.30;;;;;;;20.87;79.46;100747.41;4963634;28;20205;-84
2023/07/09 05:49:02;;;;;;;8.50;7.80;;;;;;;20.96;79.35;100759.28;4955562;28;20232;-83
2023/07/09 05:51:36;;;;;;;9.47;7.80;;;;;;;21.03;79.49;100756.19;4955732;28;20240;-84
2023/07/09 05:54:04;;;;;;;7.33;6.73;;;;;;;21.08;79.71;100761.22;4955512;28;20251;-84
2023/07/09 05:56:35;;;;;;;6.87;6.33;;;;;;;21.13;80.62;100752.97;4960604;28;20253;-86
2023/07/09 05:59:09;;;;;;;6.10;5.60;;;;;;;21.15;80.81;100738.69;4961785;28;20224;-85
2023/07/09 06:01:37;;;;;;;6.00;5.53;;;;;;;21.02;78.27;100798.72;4962430;29;20204;-85
2023/07/09 06:04:09;;;;;;;6.13;5.63;;;;;;;20.96;81.53;100756.63;4960901;29;20259;-86
2023/07/09 06:06:45;;;;;;;5.93;5.53;;;;;;;20.90;82.22;100735.75;4962510;29;20205;-85
2023/07/09 06:09:12;;;;;;;6.03;5.27;;;;;;;20.94;82.09;100727.50;4961627;28;20681;-85
2023/07/09 06:11:42;;;;;;;7.60;5.90;;;;;;;20.98;83.00;100721.06;4962133;29;20209;-86
2023/07/09 06:14:16;;;;;;;5.87;5.47;;;;;;;21.00;82.67;100721.84;4961582;28;20213;-85
2023/07/09 06:16:49;;;;;;;5.97;5.57;;;;;;;21.08;82.16;100742.63;4962724;28;20223;-86
2023/07/09 06:19:17;;;;;;;6.03;5.63;;;;;;;21.05;80.90;100761.41;4962017;28;20267;-85
2023/07/09 06:21:47;;;;;;;5.87;5.47;;;;;;;21.12;78.65;100815.84;4962272;28;20256;-85
2023/07/09 06:24:17;;;;;;;6.40;6.00;;;;;;;21.19;77.73;100845.56;4962236;28;20220;-86
2023/07/09 06:26:44;;;;;;;5.53;5.07;;;;;;;21.25;74.31;100939.94;4961214;28;20686;-85
2023/07/09 06:29:10;;;;;;;6.43;5.20;;;;;;;21.32;72.61;100997.94;4961868;28;20608;-85
2023/07/09 06:31:40;;;;;;;6.10;5.57;;;;;;;21.41;74.99;100973.53;4962909;28;20205;-85
2023/07/09 06:34:09;;;;;;;6.43;5.07;;;;;;;21.46;71.82;101025.56;4960346;28;20206;-86
2023/07/09 06:36:39;;;;;;;5.53;5.13;;;;;;;21.53;73.92;101011.88;4962914;28;20706;-85
2023/07/09 06:39:14;;;;;;;5.53;5.13;;;;;;;21.59;73.75;100998.22;4962265;28;20264;-85
2023/07/09 06:41:43;;;;;;;6.07;5.40;;;;;;;21.66;73.05;101013.81;4962220;28;20205;-85
2023/07/09 06:44:14;;;;;;;5.87;5.47;;;;;;;21.73;77.00;100941.66;4961234;28;20220;-85
2023/07/09 06:46:47;;;;;;;6.47;5.90;;;;;;;21.79;77.80;100897.91;4961325;29;20201;-85
2023/07/09 06:49:19;;;;;;;5.90;5.50;;;;;;;21.86;75.60;100922.31;4960101;28;20235;-85
2023/07/09 06:51:49;;;;;;;5.93;5.43;;;;;;;21.93;75.78;100921.03;4960804;29;20205;-85
2023/07/09 06:54:20;;;;;;;6.00;5.57;;;;;;;22.09;72.42;100979.47;4960269;28;20219;-84
2023/07/09 06:56:50;;;;;;;6.53;5.73;;;;;;;22.16;72.88;101005.63;4960859;29;20209;-84
2023/07/09 06:59:16;;;;;;;6.30;5.90;;;;;;;22.30;70.82;101051.84;4963571;28;20229;-85
2023/07/09 07:01:43;;;;;;;6.17;5.63;;;;;;;22.35;74.21;101032.00;4961289;28;20220;-84
2023/07/09 07:04:09;;;;;;;5.93;5.43;;;;;;;22.38;71.99;101058.44;4960543;28;20674;-85
2023/07/09 07:06:39;;;;;;;5.70;5.40;;;;;;;22.41;72.80;101028.13;4961705;28;20248;-85
2023/07/09 07:09:06;;;;;;;6.13;5.60;;;;;;;22.48;73.59;101013.53;4961538;28;20723;-85
2023/07/09 07:11:33;;;;;;;6.57;6.07;;;;;;;22.55;73.48;101004.22;4961856;28;20595;-85
2023/07/09 07:14:00;;;;;;;7.03;6.47;;;;;;;22.66;72.31;101024.03;4961581;28;20204;-85
2023/07/09 07:16:32;;;;;;;6.67;6.13;;;;;;;22.76;72.03;101023.38;4961976;28;20682;-85
2023/07/09 07:19:03;;;;;;;6.70;6.30;;;;;;;22.82;72.56;101031.94;4960243;28;20225;-85
2023/07/09 07:21:33;;;;;;;6.63;6.13;;;;;;;22.93;70.90;101067.59;4961336;29;20202;-85
2023/07/09 07:24:04;;;;;;;7.00;6.27;;;;;;;23.04;70.14;101090.94;4962102;29;20557;-85
2023/07/09 07:26:36;;;;;;;6.97;6.47;;;;;;;23.10;69.73;101113.69;4954318;28;20228;-85
2023/07/09 07:29:08;;;;;;;6.30;5.80;;;;;;;23.18;69.40;101146.88;4961026;28;20803;-85
2023/07/09 07:31:40;;;;;;;7.13;6.43;;;;;;;23.23;70.97;101085.34;4961636;28;20248;-85
2023/07/09 07:34:08;;;;;;;6.67;6.07;;;;;;;23.25;74.97;101010.66;4969115;28;20213;-85
2023/07/09 07:36:36;;;;;;;7.27;6.67;;;;;;;23.35;70.80;101065.94;4961645;29;20250;-85
2023/07/09 07:39:02;;;;;;;15.37;6.03;;;;;;;23.43;70.75;101077.91;4960692;28;20230;-84
2023/07/09 07:41:28;;;;;;;6.33;5.93;;;;;;;23.48;71.35;101083.81;4960409;28;20197;-84
2023/07/09 07:43:59;;;;;;;6.50;6.00;;;;;;;23.44;75.97;100981.88;4961372;28;20209;-85
2023/07/09 07:46:33;;;;;;;6.37;5.87;;;;;;;23.52;73.24;100984.06;4957524;28;20231;-87
2023/07/09 07:49:01;;;;;;;7.30;6.60;;;;;;;23.58;76.57;100925.03;4953650;28;20229;-85
2023/07/09 07:51:28;;;;;;;6.40;5.83;;;;;;;23.69;74.32;100951.84;4953601;28;20253;-85
2023/07/09 07:53:54;;;;;;;6.37;5.87;;;;;;;23.77;70.29;101050.84;4955753;28;20201;-86
2023/07/09 07:56:23;;;;;;;11.17;6.43;;;;;;;23.88;68.78;101108.81;4962127;29;20218;-84
2023/07/09 07:58:49;;;;;;;6.47;6.07;;;;;;;23.97;70.00;101108.22;4960081;28;20746;-82
2023/07/09 08:01:19;;;;;;;6.87;6.13;;;;;;;24.10;69.59;101121.63;4961833;29;20236;-81
2023/07/09 08:03:45;;;;;;;6.60;6.10;;;;;;;24.17;69.21;101133.59;4962710;29;20218;-81
2023/07/09 08:06:12;;;;;;;6.47;5.97;;;;;;;24.25;69.12;101151.78;4968916;29;20209;-83
2023/07/09 08:08:48;;;;;;;6.93;6.43;;;;;;;24.29;71.42;101112.44;4970593;28;20225;-83
2023/07/09 08:11:17;;;;;;;7.17;6.57;;;;;;;24.32;71.42;101080.19;4966123;29;20219;-79
2023/07/09 08:13:44;;;;;;;6.33;5.90;;;;;;;24.35;70.33;101115.53;4969328;28;20644;-81
2023/07/09 08:16:12;;;;;;;5.73;5.33;;;;;;;24.40;68.38;101133.94;4969676;28;20271;-81
2023/07/09 08:18:39;;;;;;;6.67;6.10;;;;;;;24.49;70.75;101117.28;4969062;28;20320;-81
2023/07/09 08:21:06;;;;;;;6.67;5.97;;;;;;;24.59;67.72;101162.94;4964200;28;20204;-81
2023/07/09 08:23:32;;;;;;;6.27;5.83;;;;;;;24.67;66.24;101216.69;4957518;29;20212;-83
2023/07/09 08:26:02;;;;;;;6.40;5.90;;;;;;;24.73;66.01;101229.63;4959565;29;20201;-82
2023/07/09 08:28:29;;;;;;;6.63;6.20;;;;;;;24.78;65.50;101251.56;4957299;28;20254;-82
2023/07/09 08:30:55;;;;;;;7.57;7.03;;;;;;;24.82;67.25;101220.16;4965308;28;20255;-82
2023/07/09 08:33:22;;;;;;;6.37;5.87;;;;;;;24.90;66.37;101214.31;4955844;29;20568;-82
2023/07/09 08:39:12;;;;;;;6.40;5.93;;;;;;;25.04;64.33;101278.34;4946969;28;20285;-81
2023/07/09 08:41:43;;;;;;;6.47;5.97;;;;;;;25.09;65.20;101270.03;4947893;28;20272;-80
2023/07/09 08:44:31;;;;;;;6.53;6.03;;;;;;;25.12;65.34;101230.59;4956885;28;20267;-80
2023/07/09 08:47:03;;;;;;;6.23;5.83;;;;;;;25.22;65.77;101212.16;4956692;28;20242;-80
2023/07/09 08:49:38;;;;;;;6.43;5.93;;;;;;;25.31;64.49;101253.44;4950924;28;20272;-80
2023/07/09 08:52:13;;;;;;;6.30;5.90;;;;;;;25.39;65.18;101268.94;4956644;28;20205;-77
2023/07/09 08:54:43;;;;;;;6.60;6.17;;;;;;;25.42;66.31;101234.00;4954684;28;20261;-79
2023/07/09 08:57:20;;;;;;;6.40;6.00;;;;;;;25.52;69.02;101190.47;4955813;28;20216;-79
2023/07/09 08:59:48;;;;;;;6.50;6.10;;;;;;;25.60;65.50;101184.59;4957954;28;20280;-79
2023/07/09 09:02:23;;;;;;;6.50;6.00;;;;;;;25.65;64.78;101227.03;4957336;28;20208;-79
2023/07/09 09:04:50;;;;;;;6.23;5.73;;;;;;;25.69;63.72;101274.03;4962679;28;20263;-79
2023/07/09 09:07:24;;;;;;;6.57;6.17;;;;;;;25.76;62.72;101334.13;4958993;28;20237;-82
2023/07/09 09:09:57;;;;;;;6.87;6.20;;;;;;;25.85;66.25;101242.56;4957355;28;20276;-79
2023/07/09 09:12:29;;;;;;;7.33;6.70;;;;;;;25.94;66.18;101215.16;4957540;28;20296;-80
2023/07/09 09:15:04;;;;;;;6.50;6.03;;;;;;;26.04;62.57;101294.78;4964680;28;20208;-79
2023/07/09 09:17:34;;;;;;;7.33;6.83;;;;;;;26.09;65.48;101274.78;4957377;28;20205;-79
2023/07/09 09:20:04;;;;;;;6.73;6.23;;;;;;;26.18;66.39;101238.44;4957052;28;20274;-79
2023/07/09 09:22:47;;;;;;;6.93;6.43;;;;;;;26.28;68.69;101144.97;4956229;28;20208;-79
2023/07/09 09:25:25;;;;;;;7.33;6.83;;;;;;;26.35;63.97;101234.56;4957122;28;20230;-81
2023/07/09 09:27:51;;;;;;;6.80;6.40;;;;;;;26.43;67.65;101167.09;4956740;28;20316;-80
2023/07/09 09:30:20;;;;;;;6.70;6.30;;;;;;;26.51;65.29;101186.94;4964870;28;20276;-79
2023/07/09 09:32:49;;;;;;;7.47;6.80;;;;;;;26.67;65.26;101178.66;4956734;28;20208;-78
2023/07/09 09:35:19;;;;;;;7.07;6.47;;;;;;;26.76;66.80;101174.44;4270010;28;10000770;-80
2023/07/09 09:37:53;;;;;;;7.40;6.93;;;;;;;26.80;64.54;101237.53;4953214;28;20494;-79
2023/07/09 09:40:23;;;;;;;7.40;6.90;;;;;;;26.83;64.89;101247.16;4952959;28;21085;-79
2023/07/09 09:42:50;;;;;;;6.77;6.37;;;;;;;26.92;69.06;101187.53;4953257;28;20299;-79
2023/07/09 09:45:20;;;;;;;6.53;6.13;;;;;;;26.98;64.78;101183.50;4953118;28;20663;-79
2023/07/09 09:47:47;;;;;;;7.03;6.60;;;;;;;27.07;65.11;101202.41;4953126;28;20476;-79
2023/07/09 09:50:15;;;;;;;6.60;6.10;;;;;;;27.17;61.28;101316.97;4952479;28;20229;-79
2023/07/09 09:52:42;;;;;;;7.20;6.73;;;;;;;27.21;61.19;101354.16;4952918;28;20201;-79
2023/07/09 09:55:12;;;;;;;7.83;7.33;;;;;;;27.28;59.45;101413.59;4955101;28;20267;-80
2023/07/09 09:57:40;;;;;;;7.50;6.77;;;;;;;27.32;55.48;101536.59;4954442;28;20259;-80
2023/07/09 10:00:15;;;;;;;8.90;7.17;;;;;;;27.41;57.49;101556.50;4954346;28;20872;-80
2023/07/09 10:02:41;;;;;;;6.93;6.43;;;;;;;27.50;56.49;101495.97;4953643;28;20579;-80
2023/07/09 10:05:12;;;;;;;6.93;6.53;;;;;;;27.56;56.45;101545.66;4953887;28;20236;-80
2023/07/09 10:07:44;;;;;;;7.57;6.97;;;;;;;27.62;55.28;101513.84;4952947;28;20687;-80
2023/07/09 10:10:14;;;;;;;6.37;5.97;;;;;;;27.70;53.72;101608.03;4953365;28;20296;-80
2023/07/09 10:12:50;;;;;;;7.03;6.53;;;;;;;27.79;52.76;101649.47;4953631;28;20556;-80
2023/07/09 10:15:33;;;;;;;7.20;6.70;;;;;;;27.89;56.45;101644.31;4954550;28;20213;-79
2023/07/09 10:18:03;;;;;;;6.67;6.27;;;;;;;27.96;53.87;101639.34;4958943;28;20200;-80
2023/07/09 10:20:36;;;;;;;7.80;7.20;;;;;;;28.04;55.42;101586.78;4954206;28;20294;-80
2023/07/09 10:23:18;;;;;;;7.17;6.63;;;;;;;28.15;55.00;101556.47;4953281;28;20204;-80
2023/07/09 10:25:52;;;;;;;6.60;6.20;;;;;;;28.22;50.90;101669.63;4953796;28;20629;-80
2023/07/09 10:28:46;;;;;;;6.73;6.40;;;;;;;28.28;50.19;101757.78;4953467;28;20208;-80
2023/07/09 10:31:21;;;;;;;7.77;6.77;;;;;;;28.33;50.25;101715.34;4953965;28;20580;-80
2023/07/09 10:34:02;;;;;;;6.73;6.23;;;;;;;28.39;54.47;101638.84;4952918;28;20730;-80
2023/07/09 10:36:41;;;;;;;7.33;6.93;;;;;;;28.39;50.00;101580.59;4953400;28;20295;-80
2023/07/09 10:39:12;;;;;;;6.67;6.10;;;;;;;28.56;54.28;101602.66;4947890;28;20794;-80
2023/07/09 10:41:40;;;;;;;6.47;6.07;;;;;;;28.69;55.40;101590.84;4955384;28;20204;-80
2023/07/09 10:44:15;;;;;;;6.83;6.43;;;;;;;28.75;50.51;101607.47;4954205;28;20208;-78
2023/07/09 10:46:47;;;;;;;7.27;6.77;;;;;;;28.85;50.56;101691.78;4954813;28;20260;-80
2023/07/09 10:49:16;;;;;;;6.60;6.10;;;;;;;28.95;53.66;101587.94;4956035;28;20237;-80
2023/07/09 10:51:49;;;;;;;6.43;5.87;;;;;;;29.00;50.27;101765.03;4954951;28;20229;-80
2023/07/09 10:54:27;;;;;;;7.47;6.67;;;;;;;29.03;52.53;101631.22;4953710;28;20295;-80
2023/07/09 10:57:00;;;;;;;6.10;5.70;;;;;;;29.05;48.33;101672.28;4954959;29;20264;-80
2023/07/09 10:59:32;;;;;;;6.70;6.30;;;;;;;29.13;49.09;101797.25;4954338;28;20237;-80
2023/07/09 11:02:08;;;;;;;6.97;6.40;;;;;;;29.23;47.09;101820.63;4954596;29;20205;-80
2023/07/09 11:04:41;;;;;;;6.83;6.10;;;;;;;29.40;51.57;101745.88;4954683;29;20275;-80
2023/07/09 11:07:13;;;;;;;6.97;6.30;;;;;;;29.48;53.58;101619.66;4954955;28;20213;-79
2023/07/09 11:09:43;;;;;;;6.53;6.23;;;;;;;29.56;47.48;101711.38;4954908;28;20241;-82
2023/07/09 11:12:14;;;;;;;6.90;6.40;;;;;;;29.59;47.84;101831.38;4950411;28;20299;-79
2023/07/09 11:14:47;;;;;;;7.20;6.70;;;;;;;29.73;46.84;101788.13;4952712;28;20217;-79
2023/07/09 11:17:17;;;;;;;6.70;6.30;;;;;;;29.80;51.36;101727.44;4951525;28;20217;-79
2023/07/09 11:19:46;;;;;;;6.90;6.50;;;;;;;29.97;50.69;101696.47;4945536;28;20248;-80
2023/07/09 11:22:17;;;;;;;6.50;6.10;;;;;;;30.09;48.62;101702.72;4952932;28;20213;-79
2023/07/09 11:24:50;;;;;;;6.67;6.17;;;;;;;30.20;45.22;101855.34;4951793;28;20211;-79
2023/07/09 11:27:19;;;;;;;6.63;6.23;;;;;;;30.27;43.81;101969.72;4952147;28;20213;-79
2023/07/09 11:29:49;;;;;;;6.93;6.43;;;;;;;30.38;45.54;101880.84;4953878;28;20291;-80
2023/07/09 11:32:21;;;;;;;7.07;6.67;;;;;;;30.56;46.98;101854.22;4954185;28;20437;-79
2023/07/09 11:34:48;;;;;;;7.03;6.50;;;;;;;30.72;46.97;101770.25;4956283;28;20275;-80
2023/07/09 11:37:15;;;;;;;6.13;5.73;;;;;;;30.97;50.84;101698.97;4951470;29;20247;-80
2023/07/09 11:39:47;;;;;;;7.37;6.87;;;;;;;31.55;47.87;101728.16;4951563;28;20233;-80